Lanark, Illinois
Current Conditions -  °F | °C
As of 1:35 AM on Wednesday 26 Nov 2014 (Local Time) from KSFY Reporting Station
Clear Clear  
Wind Chill: 12°   Ceiling: Unl
Heat Index: 12°   Visibility: 7mi
Dew Point:   Wind: 3mph
Humidity: 88%   Direction: 60°ENE
Pressure: 30.14"   Gusts: NA
Location:  42.1°N, 89.83°W
Report Text: KSFY 260735Z AUTO 06003KT 7SM CLR M11/M13 A3014 RMK AO2 T11101126
Loading
Personal Weather Stations






























Interactive Weather Map New forecast layout! Learn more

10-Day Weather Forecast

Advertisements
Track Severe Weather on mobile